createdAt,value
2019-04-03T00:01:26.789Z,25
2019-04-03T00:06:28.891Z,22
2019-04-03T00:11:31.322Z,21
2019-04-03T00:16:33.792Z,20
2019-04-03T00:21:36.284Z,22
2019-04-03T00:26:38.771Z,22
2019-04-03T00:31:41.511Z,25
2019-04-03T00:36:43.632Z,20
2019-04-03T00:41:46.073Z,23
2019-04-03T00:46:48.576Z,22
2019-04-03T00:51:51.074Z,23
2019-04-03T00:56:56.079Z,25
2019-04-03T01:01:56.443Z,27
2019-04-03T01:06:59.021Z,24
2019-04-03T01:12:01.222Z,30
2019-04-03T01:17:04.304Z,28
2019-04-03T01:22:07.709Z,20
2019-04-03T01:27:08.218Z,23
2019-04-03T01:32:10.954Z,26
2019-04-03T01:37:13.100Z,20
2019-04-03T01:42:15.555Z,19
2019-04-03T01:47:18.017Z,20
2019-04-03T01:52:20.469Z,22
2019-04-03T01:57:22.943Z,22
2019-04-03T02:02:25.805Z,21
2019-04-03T02:07:27.916Z,24
2019-04-03T02:12:30.318Z,17
2019-04-03T02:17:32.754Z,20
2019-04-03T02:22:35.467Z,21
2019-04-03T02:27:37.846Z,23
2019-04-03T02:32:40.500Z,20
2019-04-03T02:37:43.033Z,27
2019-04-03T02:42:45.070Z,18
2019-04-03T02:47:47.572Z,20
2019-04-03T02:52:49.968Z,20
2019-04-03T02:57:52.432Z,18
2019-04-03T03:02:55.181Z,19
2019-04-03T03:07:57.550Z,22
2019-04-03T03:13:01.501Z,14
2019-04-03T03:18:02.580Z,23
2019-04-03T03:23:04.812Z,23
2019-04-03T03:28:07.307Z,23
2019-04-03T03:33:26.268Z,23
2019-04-03T03:38:12.091Z,26
2019-04-03T03:43:14.527Z,24
2019-04-03T03:48:17.380Z,20
2019-04-03T03:53:19.507Z,21
2019-04-03T03:58:22.242Z,23
2019-04-03T04:03:24.887Z,22
2019-04-03T04:08:26.838Z,23
2019-04-03T04:13:29.347Z,22
2019-04-03T04:18:31.833Z,26
2019-04-03T04:23:34.199Z,31
2019-04-03T04:28:39.185Z,27
2019-04-03T04:33:39.200Z,27
2019-04-03T04:38:41.735Z,23
2019-04-03T04:43:44.239Z,24
2019-04-03T04:48:46.556Z,21
2019-04-03T04:53:49.005Z,21
2019-04-03T04:58:51.470Z,28
2019-04-03T05:03:54.551Z,25
2019-04-03T05:08:56.344Z,23
2019-04-03T05:13:58.778Z,20
2019-04-03T05:19:09.231Z,25
2019-04-03T05:24:11.338Z,25
2019-04-03T05:29:06.336Z,24
2019-04-03T05:34:08.679Z,24
2019-04-03T05:39:11.096Z,23
2019-04-03T05:44:13.519Z,25
2019-04-03T05:49:18.416Z,23
2019-04-03T05:54:18.507Z,22
2019-04-03T05:59:21.234Z,23
2019-04-03T06:04:23.632Z,23
2019-04-03T06:09:25.803Z,23
2019-04-03T06:14:28.263Z,21
2019-04-03T06:19:30.782Z,21
2019-04-03T06:24:33.166Z,21
2019-04-03T06:29:35.926Z,21
2019-04-03T06:34:40.526Z,24
2019-04-03T06:39:40.520Z,21
2019-04-03T06:44:42.987Z,21
2019-04-03T06:54:47.999Z,18
2019-04-03T06:59:50.403Z,17
2019-04-03T07:04:52.814Z,17
2019-04-03T07:09:55.292Z,17
2019-04-03T07:14:57.962Z,23
2019-04-03T07:20:12.292Z,17
2019-04-03T07:25:03.771Z,18
2019-04-03T07:30:05.199Z,15
2019-04-03T07:35:09.699Z,16
2019-04-03T07:40:10.132Z,16
2019-04-03T07:45:12.514Z,18
2019-04-03T07:50:15.037Z,16
2019-04-03T07:55:17.532Z,16
2019-04-03T08:00:19.871Z,18
2019-04-03T08:05:22.313Z,16
2019-04-03T08:10:24.821Z,16
2019-04-03T08:15:27.361Z,15
2019-04-03T08:20:31.008Z,15
2019-04-03T08:25:32.178Z,14
2019-04-03T08:30:34.664Z,17
2019-04-03T08:35:37.394Z,15
2019-04-03T08:40:39.610Z,17
2019-04-03T08:45:42.018Z,14
2019-04-03T08:50:44.501Z,14
2019-04-03T08:55:47.105Z,15
2019-04-03T09:05:55.466Z,15
2019-04-03T09:10:54.761Z,16
2019-04-03T09:15:58.590Z,15
2019-04-03T09:20:59.217Z,15
2019-04-03T09:26:03.020Z,16
2019-04-03T09:31:04.141Z,17
2019-04-03T09:36:06.590Z,16
2019-04-03T09:41:09.336Z,15
2019-04-03T09:46:11.499Z,16
2019-04-03T09:51:14.237Z,15
2019-04-03T09:56:16.489Z,15
2019-04-03T10:01:19.094Z,14
2019-04-03T10:06:21.538Z,15
2019-04-03T10:11:23.804Z,15
2019-04-03T10:16:26.328Z,19
2019-04-03T10:21:28.903Z,15
2019-04-03T10:26:31.825Z,14
2019-04-03T10:31:33.681Z,16
2019-04-03T10:36:36.483Z,14
2019-04-03T10:41:38.849Z,15
2019-04-03T10:51:43.924Z,15
2019-04-03T10:56:46.221Z,16
2019-04-03T11:01:48.422Z,16
2019-04-03T11:06:51.036Z,15
2019-04-03T11:11:53.324Z,16
2019-04-03T11:21:58.388Z,16
2019-04-03T11:27:00.751Z,16
2019-04-03T11:32:03.156Z,15
2019-04-03T11:37:06.093Z,21
2019-04-03T11:42:08.053Z,16
2019-04-03T11:52:13.076Z,16
2019-04-03T11:57:16.437Z,17
2019-04-03T12:02:18.100Z,15
2019-04-03T12:07:20.481Z,17
2019-04-03T12:17:25.273Z,15
2019-04-03T12:22:27.730Z,15
2019-04-03T12:27:30.322Z,14
2019-04-03T12:32:38.336Z,14
2019-04-03T12:37:35.140Z,12
2019-04-03T12:42:37.924Z,11
2019-04-03T12:47:42.766Z,13
2019-04-03T12:52:44.371Z,12
2019-04-03T12:57:45.174Z,16
2019-04-03T13:02:47.434Z,12
2019-04-03T13:07:50.149Z,15
2019-04-03T13:12:54.574Z,12
2019-04-03T13:17:54.784Z,12
2019-04-03T13:22:57.328Z,13
2019-04-03T13:28:02.672Z,12
2019-04-03T13:33:05.609Z,14
2019-04-03T13:38:04.640Z,13
2019-04-03T13:43:07.256Z,12
2019-04-03T13:48:11.973Z,10
2019-04-03T13:53:12.010Z,11
2019-04-03T13:58:14.512Z,14
2019-04-03T14:03:18.055Z,12
2019-04-03T14:08:19.892Z,15
2019-04-03T14:13:22.029Z,13
2019-04-03T14:18:24.384Z,16
2019-04-03T14:23:27.071Z,12
2019-04-03T14:28:29.190Z,13
2019-04-03T14:33:41.522Z,14
2019-04-03T14:38:34.457Z,15
2019-04-03T14:43:36.580Z,12
2019-04-03T14:48:39.416Z,14
2019-04-03T14:53:41.481Z,15
2019-04-03T14:58:44.014Z,13
2019-04-03T15:03:46.780Z,15
2019-04-03T15:08:49.216Z,15
2019-04-03T15:13:51.589Z,14
2019-04-03T15:18:53.864Z,14
2019-04-03T15:23:56.568Z,14
2019-04-03T15:28:59.923Z,17
2019-04-03T15:34:01.637Z,16
2019-04-03T15:39:03.674Z,15
2019-04-03T15:44:06.106Z,14
2019-04-03T15:54:11.283Z,16
2019-04-03T15:59:13.727Z,15
2019-04-03T16:04:16.176Z,16
2019-04-03T16:09:19.491Z,16
2019-04-03T16:14:20.998Z,17
2019-04-03T16:19:23.495Z,17
2019-04-03T16:24:25.806Z,17
2019-04-03T16:29:30.150Z,18
2019-04-03T16:34:30.694Z,16
2019-04-03T16:39:33.696Z,20
2019-04-03T16:44:35.629Z,22
2019-04-03T16:49:38.044Z,17
2019-04-03T16:54:43.060Z,18
2019-04-03T16:59:43.087Z,16
2019-04-03T17:04:45.773Z,19
2019-04-03T17:09:48.204Z,22
2019-04-03T17:14:50.396Z,18
2019-04-03T17:19:52.801Z,17
2019-04-03T17:24:56.347Z,16
2019-04-03T17:29:57.867Z,21
2019-04-03T17:35:00.290Z,19
2019-04-03T17:40:04.033Z,15
2019-04-03T17:45:05.115Z,17
2019-04-03T17:50:07.519Z,22
2019-04-03T17:55:10.820Z,18
2019-04-03T18:00:12.600Z,20
2019-04-03T18:05:14.891Z,20
2019-04-03T18:10:17.368Z,20
2019-04-03T18:15:19.838Z,16
2019-04-03T18:20:22.254Z,18
2019-04-03T18:25:24.746Z,21
2019-04-03T18:30:27.165Z,22
2019-04-03T18:35:29.655Z,18
2019-04-03T18:40:32.180Z,19
2019-04-03T18:45:34.591Z,19
2019-04-03T18:50:37.017Z,22
2019-04-03T18:55:39.547Z,23
2019-04-03T19:00:41.951Z,20
2019-04-03T19:05:44.426Z,20
2019-04-03T19:10:46.934Z,18
2019-04-03T19:15:49.310Z,20
2019-04-03T19:20:51.819Z,23
2019-04-03T19:25:54.326Z,23
2019-04-03T19:30:56.671Z,20
2019-04-03T19:35:59.337Z,19
2019-04-03T19:41:01.679Z,19
2019-04-03T19:46:04.052Z,21
2019-04-03T19:51:06.525Z,20
2019-04-03T19:56:08.973Z,19
2019-04-03T20:01:11.439Z,21
2019-04-03T20:06:13.885Z,20
2019-04-03T20:11:16.439Z,17
2019-04-03T20:16:18.796Z,19
2019-04-03T20:21:21.326Z,26
2019-04-03T20:26:23.714Z,18
2019-04-03T20:31:26.152Z,25
2019-04-03T20:36:28.616Z,23
2019-04-03T20:41:31.090Z,16
2019-04-03T20:46:33.570Z,19
2019-04-03T20:51:36.006Z,24
2019-04-03T20:56:38.529Z,29
2019-04-03T21:01:40.981Z,20
2019-04-03T21:06:43.380Z,19
2019-04-03T21:11:45.924Z,31
2019-04-03T21:16:48.481Z,18
2019-04-03T21:21:50.745Z,16
2019-04-03T21:26:53.261Z,18
2019-04-03T21:31:56.692Z,14
2019-04-03T21:36:58.223Z,26
2019-04-03T21:42:00.702Z,19
2019-04-03T21:47:03.326Z,17
2019-04-03T21:52:05.556Z,22
2019-04-03T21:57:07.948Z,19
2019-04-03T22:02:10.435Z,20
2019-04-03T22:07:12.862Z,16
2019-04-03T22:12:15.334Z,18
2019-04-03T22:17:18.056Z,20
2019-04-03T22:22:20.326Z,17
2019-04-03T22:27:22.746Z,19
2019-04-03T22:32:25.351Z,25
2019-04-03T22:37:27.630Z,23
2019-04-03T22:42:30.092Z,20
2019-04-03T22:47:32.807Z,17
2019-04-03T22:52:35.009Z,17
2019-04-03T22:57:37.557Z,17
2019-04-03T23:02:39.893Z,19
2019-04-03T23:07:42.347Z,18
2019-04-03T23:12:44.911Z,17
2019-04-03T23:17:47.267Z,15
2019-04-03T23:22:49.729Z,22
2019-04-03T23:27:52.214Z,16
2019-04-03T23:32:54.676Z,14
2019-04-03T23:37:57.102Z,16
2019-04-03T23:42:59.612Z,16
2019-04-03T23:48:02.005Z,19
2019-04-03T23:53:04.520Z,19
2019-04-03T23:58:07.043Z,23
